Flight NumberIRM051 Date13.02.2018
Departure AirportOIIE Arrival AirportVTBS
Departure Time16.38Arrival Time22.57
Pilot In CommandMohammadSadegh Ghanaat Block Time6.30 Hours
Pilot Rating100 % AircraftEP-MME [ A340-600 ]


Distance2,971.00 Nm. Passengers308
Fuel Used56,148 Kg. Cargo43220 Kg
Expense Details Income Details
Fuel Cost52,311 v$Ticket Sales98,560 v$
Pilot Salary4,056 v$ Cargo income65,810.00 v$
Crew Salary1,540 v$ Bonus22,535 v$
Gross Profit131,158 v$ ( 131,158 v$ )

Client Versionv2.1.0 Max Simrate1
Flight Critique Pilot CommentsVTBS 132200Z 00000KT 8000 NSC 23/17 Q1016 NOSIG // TARED Arrival---ILS 19L

[ Back ]
FSA VA Integration Pack
Copyright © 2010 FSAirlines.net. Version : 0.1.1